Terminal Aerodrome Forecast
Issued by NWS

Home | Current Version | Previous Version | Text Only | Print | Product List | Glossary On
Versions: 1 2 3 4 5 6 7 8 9 10 11 12 13 14 15
000
FTUS43 KICT 230700 AAA
TAFSLN
TAF AMD
KSLN 230749Z 2308/2406 21006KT 6SM BR SCT009 OVC015
     FM231700 20010KT P6SM BKN025=

USA.gov is the U.S. government's official web portal to all federal, state and local government web resources and services.